sensor_id;sensor_type;location;lat;lon;timestamp;P1;durP1;ratioP1;P2;durP2;ratioP2
65924;SDS011;66010;52.084;5.412;2023-04-29T00:01:01;12.60;;;5.38;;
65924;SDS011;66010;52.084;5.412;2023-04-29T00:03:28;12.35;;;5.53;;
65924;SDS011;66010;52.084;5.412;2023-04-29T00:05:58;12.48;;;5.78;;
65924;SDS011;66010;52.084;5.412;2023-04-29T00:08:25;13.15;;;6.15;;
65924;SDS011;66010;52.084;5.412;2023-04-29T00:10:51;14.73;;;6.13;;
65924;SDS011;66010;52.084;5.412;2023-04-29T00:13:18;13.30;;;5.97;;
65924;SDS011;66010;52.084;5.412;2023-04-29T00:15:44;13.15;;;6.47;;
65924;SDS011;66010;52.084;5.412;2023-04-29T00:18:11;12.75;;;5.88;;
65924;SDS011;66010;52.084;5.412;2023-04-29T00:20:39;14.32;;;6.25;;
65924;SDS011;66010;52.084;5.412;2023-04-29T00:23:05;12.85;;;6.03;;
65924;SDS011;66010;52.084;5.412;2023-04-29T00:25:33;13.98;;;6.65;;
65924;SDS011;66010;52.084;5.412;2023-04-29T00:27:59;14.52;;;7.22;;
65924;SDS011;66010;52.084;5.412;2023-04-29T00:30:27;17.02;;;7.03;;
65924;SDS011;66010;52.084;5.412;2023-04-29T00:32:54;17.58;;;8.95;;
65924;SDS011;66010;52.084;5.412;2023-04-29T00:35:21;17.65;;;8.90;;
65924;SDS011;66010;52.084;5.412;2023-04-29T00:37:48;18.27;;;8.55;;
65924;SDS011;66010;52.084;5.412;2023-04-29T00:40:14;19.42;;;9.23;;
65924;SDS011;66010;52.084;5.412;2023-04-29T00:42:41;18.55;;;8.00;;
65924;SDS011;66010;52.084;5.412;2023-04-29T00:45:08;18.95;;;9.07;;
65924;SDS011;66010;52.084;5.412;2023-04-29T00:47:35;20.20;;;9.23;;
65924;SDS011;66010;52.084;5.412;2023-04-29T00:50:02;19.38;;;9.15;;
65924;SDS011;66010;52.084;5.412;2023-04-29T00:52:29;18.17;;;8.68;;
65924;SDS011;66010;52.084;5.412;2023-04-29T00:54:56;19.15;;;8.88;;
65924;SDS011;66010;52.084;5.412;2023-04-29T00:57:23;17.77;;;9.20;;
65924;SDS011;66010;52.084;5.412;2023-04-29T00:59:50;17.65;;;8.43;;
65924;SDS011;66010;52.084;5.412;2023-04-29T01:02:17;20.23;;;9.30;;
65924;SDS011;66010;52.084;5.412;2023-04-29T01:04:44;18.95;;;9.50;;
65924;SDS011;66010;52.084;5.412;2023-04-29T01:07:15;19.73;;;8.15;;
65924;SDS011;66010;52.084;5.412;2023-04-29T01:09:46;19.75;;;8.32;;
65924;SDS011;66010;52.084;5.412;2023-04-29T01:12:23;18.02;;;8.25;;
65924;SDS011;66010;52.084;5.412;2023-04-29T01:17:24;22.20;;;9.50;;
65924;SDS011;66010;52.084;5.412;2023-04-29T01:19:56;20.67;;;9.40;;
65924;SDS011;66010;52.084;5.412;2023-04-29T01:22:24;19.02;;;9.18;;
65924;SDS011;66010;52.084;5.412;2023-04-29T01:24:50;18.15;;;9.02;;
65924;SDS011;66010;52.084;5.412;2023-04-29T01:27:35;16.77;;;8.63;;
65924;SDS011;66010;52.084;5.412;2023-04-29T01:30:24;19.88;;;9.27;;
65924;SDS011;66010;52.084;5.412;2023-04-29T01:33:00;18.65;;;9.25;;
65924;SDS011;66010;52.084;5.412;2023-04-29T01:38:18;18.52;;;8.82;;
65924;SDS011;66010;52.084;5.412;2023-04-29T01:41:09;20.08;;;8.57;;
65924;SDS011;66010;52.084;5.412;2023-04-29T01:43:36;17.50;;;8.57;;
65924;SDS011;66010;52.084;5.412;2023-04-29T01:46:12;16.25;;;8.32;;
65924;SDS011;66010;52.084;5.412;2023-04-29T01:48:41;18.17;;;9.20;;
65924;SDS011;66010;52.084;5.412;2023-04-29T01:51:08;22.17;;;8.88;;
65924;SDS011;66010;52.084;5.412;2023-04-29T01:53:37;19.63;;;8.98;;
65924;SDS011;66010;52.084;5.412;2023-04-29T01:56:06;18.02;;;8.95;;
65924;SDS011;66010;52.084;5.412;2023-04-29T01:58:47;17.15;;;8.85;;
65924;SDS011;66010;52.084;5.412;2023-04-29T02:01:50;18.40;;;8.90;;
65924;SDS011;66010;52.084;5.412;2023-04-29T02:04:17;15.80;;;7.28;;
65924;SDS011;66010;52.084;5.412;2023-04-29T02:06:44;17.40;;;8.10;;
65924;SDS011;66010;52.084;5.412;2023-04-29T02:09:11;18.45;;;8.50;;
65924;SDS011;66010;52.084;5.412;2023-04-29T02:11:40;16.95;;;8.30;;
65924;SDS011;66010;52.084;5.412;2023-04-29T02:14:06;17.15;;;8.32;;
65924;SDS011;66010;52.084;5.412;2023-04-29T02:16:33;19.67;;;8.52;;
65924;SDS011;66010;52.084;5.412;2023-04-29T02:19:02;15.80;;;7.07;;
65924;SDS011;66010;52.084;5.412;2023-04-29T02:21:29;18.35;;;8.27;;
65924;SDS011;66010;52.084;5.412;2023-04-29T02:23:59;13.43;;;7.15;;
65924;SDS011;66010;52.084;5.412;2023-04-29T02:26:26;17.83;;;7.82;;
65924;SDS011;66010;52.084;5.412;2023-04-29T02:28:54;15.60;;;7.43;;
65924;SDS011;66010;52.084;5.412;2023-04-29T02:31:22;16.45;;;8.25;;
65924;SDS011;66010;52.084;5.412;2023-04-29T02:33:49;15.70;;;7.53;;
65924;SDS011;66010;52.084;5.412;2023-04-29T02:36:15;17.17;;;7.95;;
65924;SDS011;66010;52.084;5.412;2023-04-29T02:38:43;16.67;;;7.68;;
65924;SDS011;66010;52.084;5.412;2023-04-29T02:41:10;14.05;;;7.15;;
65924;SDS011;66010;52.084;5.412;2023-04-29T02:43:41;18.63;;;7.80;;
65924;SDS011;66010;52.084;5.412;2023-04-29T02:46:07;13.75;;;6.63;;
65924;SDS011;66010;52.084;5.412;2023-04-29T02:48:34;17.52;;;7.40;;
65924;SDS011;66010;52.084;5.412;2023-04-29T02:51:01;18.20;;;7.65;;
65924;SDS011;66010;52.084;5.412;2023-04-29T02:53:28;15.15;;;6.32;;
65924;SDS011;66010;52.084;5.412;2023-04-29T02:55:55;15.63;;;7.97;;
65924;SDS011;66010;52.084;5.412;2023-04-29T02:58:22;15.32;;;7.03;;
65924;SDS011;66010;52.084;5.412;2023-04-29T03:00:49;13.77;;;7.03;;
65924;SDS011;66010;52.084;5.412;2023-04-29T03:03:16;11.88;;;6.10;;
65924;SDS011;66010;52.084;5.412;2023-04-29T03:05:42;12.93;;;6.28;;
65924;SDS011;66010;52.084;5.412;2023-04-29T03:08:09;13.48;;;6.05;;
65924;SDS011;66010;52.084;5.412;2023-04-29T03:10:36;15.13;;;6.63;;
65924;SDS011;66010;52.084;5.412;2023-04-29T03:13:06;14.55;;;6.20;;
65924;SDS011;66010;52.084;5.412;2023-04-29T03:15:33;16.02;;;6.32;;
65924;SDS011;66010;52.084;5.412;2023-04-29T03:17:59;14.38;;;6.40;;
65924;SDS011;66010;52.084;5.412;2023-04-29T03:20:27;15.20;;;6.60;;
65924;SDS011;66010;52.084;5.412;2023-04-29T03:25:21;11.18;;;5.80;;
65924;SDS011;66010;52.084;5.412;2023-04-29T03:27:49;12.52;;;5.60;;
65924;SDS011;66010;52.084;5.412;2023-04-29T03:30:16;12.27;;;6.18;;
65924;SDS011;66010;52.084;5.412;2023-04-29T03:32:47;12.93;;;5.57;;
65924;SDS011;66010;52.084;5.412;2023-04-29T03:35:14;14.10;;;5.90;;
65924;SDS011;66010;52.084;5.412;2023-04-29T03:38:01;13.63;;;5.88;;
65924;SDS011;66010;52.084;5.412;2023-04-29T03:40:30;11.98;;;5.75;;
65924;SDS011;66010;52.084;5.412;2023-04-29T03:42:57;13.18;;;6.00;;
65924;SDS011;66010;52.084;5.412;2023-04-29T03:45:24;14.02;;;6.50;;
65924;SDS011;66010;52.084;5.412;2023-04-29T03:47:50;12.23;;;5.85;;
65924;SDS011;66010;52.084;5.412;2023-04-29T03:50:18;12.85;;;5.70;;
65924;SDS011;66010;52.084;5.412;2023-04-29T03:52:46;13.02;;;6.10;;
65924;SDS011;66010;52.084;5.412;2023-04-29T03:55:14;12.95;;;6.25;;
65924;SDS011;66010;52.084;5.412;2023-04-29T03:57:42;13.18;;;6.40;;
65924;SDS011;66010;52.084;5.412;2023-04-29T04:05:09;13.10;;;6.35;;
65924;SDS011;66010;52.084;5.412;2023-04-29T04:07:39;14.10;;;6.57;;
65924;SDS011;66010;52.084;5.412;2023-04-29T04:10:24;13.70;;;6.80;;
65924;SDS011;66010;52.084;5.412;2023-04-29T04:12:51;12.05;;;6.22;;
65924;SDS011;66010;52.084;5.412;2023-04-29T04:15:17;14.55;;;6.63;;
65924;SDS011;66010;52.084;5.412;2023-04-29T04:17:44;15.80;;;7.18;;
65924;SDS011;66010;52.084;5.412;2023-04-29T04:20:10;14.85;;;6.78;;
65924;SDS011;66010;52.084;5.412;2023-04-29T04:22:37;13.60;;;7.07;;
65924;SDS011;66010;52.084;5.412;2023-04-29T04:25:15;14.13;;;6.78;;
65924;SDS011;66010;52.084;5.412;2023-04-29T04:27:41;15.85;;;6.97;;
65924;SDS011;66010;52.084;5.412;2023-04-29T04:30:13;13.85;;;6.78;;
65924;SDS011;66010;52.084;5.412;2023-04-29T04:32:39;17.85;;;8.02;;
65924;SDS011;66010;52.084;5.412;2023-04-29T04:35:06;12.20;;;6.07;;
65924;SDS011;66010;52.084;5.412;2023-04-29T04:37:33;14.45;;;6.85;;
65924;SDS011;66010;52.084;5.412;2023-04-29T04:40:00;13.48;;;6.70;;
65924;SDS011;66010;52.084;5.412;2023-04-29T04:42:28;13.10;;;6.65;;
65924;SDS011;66010;52.084;5.412;2023-04-29T04:44:56;13.20;;;7.25;;
65924;SDS011;66010;52.084;5.412;2023-04-29T04:47:32;12.18;;;5.93;;
65924;SDS011;66010;52.084;5.412;2023-04-29T04:50:03;12.13;;;6.03;;
65924;SDS011;66010;52.084;5.412;2023-04-29T04:52:30;14.75;;;6.60;;
65924;SDS011;66010;52.084;5.412;2023-04-29T04:55:16;13.20;;;6.03;;
65924;SDS011;66010;52.084;5.412;2023-04-29T04:57:44;11.02;;;5.53;;
65924;SDS011;66010;52.084;5.412;2023-04-29T05:00:11;14.55;;;6.40;;
65924;SDS011;66010;52.084;5.412;2023-04-29T05:02:38;12.18;;;5.75;;
65924;SDS011;66010;52.084;5.412;2023-04-29T05:05:05;12.15;;;5.30;;
65924;SDS011;66010;52.084;5.412;2023-04-29T05:07:34;11.95;;;6.05;;
65924;SDS011;66010;52.084;5.412;2023-04-29T05:10:04;11.43;;;5.30;;
65924;SDS011;66010;52.084;5.412;2023-04-29T05:12:35;11.82;;;5.38;;
65924;SDS011;66010;52.084;5.412;2023-04-29T05:15:02;12.13;;;5.97;;
65924;SDS011;66010;52.084;5.412;2023-04-29T05:17:32;9.80;;;5.18;;
65924;SDS011;66010;52.084;5.412;2023-04-29T05:20:00;13.93;;;5.95;;
65924;SDS011;66010;52.084;5.412;2023-04-29T05:22:27;11.48;;;5.80;;
65924;SDS011;66010;52.084;5.412;2023-04-29T05:24:53;14.07;;;5.57;;
65924;SDS011;66010;52.084;5.412;2023-04-29T05:27:25;13.63;;;5.75;;
65924;SDS011;66010;52.084;5.412;2023-04-29T05:29:52;10.70;;;5.18;;
65924;SDS011;66010;52.084;5.412;2023-04-29T05:32:19;13.07;;;5.75;;
65924;SDS011;66010;52.084;5.412;2023-04-29T05:34:45;10.57;;;4.93;;
65924;SDS011;66010;52.084;5.412;2023-04-29T05:37:12;10.40;;;5.00;;
65924;SDS011;66010;52.084;5.412;2023-04-29T05:39:56;11.45;;;5.68;;
65924;SDS011;66010;52.084;5.412;2023-04-29T05:42:23;11.50;;;5.65;;
65924;SDS011;66010;52.084;5.412;2023-04-29T05:44:49;11.05;;;5.60;;
65924;SDS011;66010;52.084;5.412;2023-04-29T05:47:16;11.48;;;5.60;;
65924;SDS011;66010;52.084;5.412;2023-04-29T05:49:43;10.20;;;4.93;;
65924;SDS011;66010;52.084;5.412;2023-04-29T05:52:09;11.43;;;5.30;;
65924;SDS011;66010;52.084;5.412;2023-04-29T05:54:42;11.52;;;5.22;;
65924;SDS011;66010;52.084;5.412;2023-04-29T05:57:08;10.60;;;5.30;;
65924;SDS011;66010;52.084;5.412;2023-04-29T05:59:35;12.65;;;5.50;;
65924;SDS011;66010;52.084;5.412;2023-04-29T06:02:03;13.38;;;5.50;;
65924;SDS011;66010;52.084;5.412;2023-04-29T06:04:30;11.38;;;5.63;;
65924;SDS011;66010;52.084;5.412;2023-04-29T06:09:59;12.75;;;5.65;;
65924;SDS011;66010;52.084;5.412;2023-04-29T06:12:27;11.93;;;5.30;;
65924;SDS011;66010;52.084;5.412;2023-04-29T06:14:53;10.55;;;5.03;;
65924;SDS011;66010;52.084;5.412;2023-04-29T06:17:20;11.25;;;4.95;;
65924;SDS011;66010;52.084;5.412;2023-04-29T06:19:47;11.13;;;4.97;;
65924;SDS011;66010;52.084;5.412;2023-04-29T06:22:13;13.02;;;5.70;;
65924;SDS011;66010;52.084;5.412;2023-04-29T06:24:46;13.23;;;6.43;;
65924;SDS011;66010;52.084;5.412;2023-04-29T06:27:23;14.82;;;6.80;;
65924;SDS011;66010;52.084;5.412;2023-04-29T06:29:49;12.45;;;5.68;;
65924;SDS011;66010;52.084;5.412;2023-04-29T06:32:16;13.18;;;6.32;;
65924;SDS011;66010;52.084;5.412;2023-04-29T06:34:44;12.40;;;6.40;;
65924;SDS011;66010;52.084;5.412;2023-04-29T06:37:34;14.05;;;6.00;;
65924;SDS011;66010;52.084;5.412;2023-04-29T06:40:27;12.10;;;5.85;;
65924;SDS011;66010;52.084;5.412;2023-04-29T06:43:07;14.05;;;6.20;;
65924;SDS011;66010;52.084;5.412;2023-04-29T06:45:52;12.85;;;6.00;;
65924;SDS011;66010;52.084;5.412;2023-04-29T06:48:21;10.68;;;5.43;;
65924;SDS011;66010;52.084;5.412;2023-04-29T06:50:51;11.18;;;5.53;;
65924;SDS011;66010;52.084;5.412;2023-04-29T06:53:18;13.52;;;5.38;;
65924;SDS011;66010;52.084;5.412;2023-04-29T06:55:44;12.57;;;5.63;;
65924;SDS011;66010;52.084;5.412;2023-04-29T06:58:14;14.38;;;5.93;;
65924;SDS011;66010;52.084;5.412;2023-04-29T07:00:50;12.60;;;5.22;;
65924;SDS011;66010;52.084;5.412;2023-04-29T07:03:17;14.48;;;6.10;;
65924;SDS011;66010;52.084;5.412;2023-04-29T07:05:44;14.27;;;6.53;;
65924;SDS011;66010;52.084;5.412;2023-04-29T07:08:11;18.63;;;5.05;;
65924;SDS011;66010;52.084;5.412;2023-04-29T07:10:38;10.95;;;4.20;;
65924;SDS011;66010;52.084;5.412;2023-04-29T07:13:05;12.73;;;4.22;;
65924;SDS011;66010;52.084;5.412;2023-04-29T07:15:35;12.27;;;4.28;;
65924;SDS011;66010;52.084;5.412;2023-04-29T07:18:02;10.07;;;4.20;;
65924;SDS011;66010;52.084;5.412;2023-04-29T07:20:29;11.85;;;5.07;;
65924;SDS011;66010;52.084;5.412;2023-04-29T07:22:56;7.85;;;3.72;;
65924;SDS011;66010;52.084;5.412;2023-04-29T07:25:22;18.40;;;4.50;;
65924;SDS011;66010;52.084;5.412;2023-04-29T07:27:50;10.63;;;4.25;;
65924;SDS011;66010;52.084;5.412;2023-04-29T07:30:17;10.80;;;4.65;;
65924;SDS011;66010;52.084;5.412;2023-04-29T07:32:43;11.20;;;3.97;;
65924;SDS011;66010;52.084;5.412;2023-04-29T07:35:10;7.68;;;3.60;;
65924;SDS011;66010;52.084;5.412;2023-04-29T07:37:37;7.15;;;2.67;;
65924;SDS011;66010;52.084;5.412;2023-04-29T07:40:04;8.65;;;4.30;;
65924;SDS011;66010;52.084;5.412;2023-04-29T07:44:57;9.25;;;3.22;;
65924;SDS011;66010;52.084;5.412;2023-04-29T07:47:24;9.02;;;2.80;;
65924;SDS011;66010;52.084;5.412;2023-04-29T07:49:50;6.75;;;2.58;;
65924;SDS011;66010;52.084;5.412;2023-04-29T07:52:18;9.20;;;3.95;;
65924;SDS011;66010;52.084;5.412;2023-04-29T07:54:47;10.50;;;2.90;;
65924;SDS011;66010;52.084;5.412;2023-04-29T07:57:14;6.65;;;3.08;;
65924;SDS011;66010;52.084;5.412;2023-04-29T07:59:41;7.65;;;3.30;;
65924;SDS011;66010;52.084;5.412;2023-04-29T08:02:07;8.38;;;3.30;;
65924;SDS011;66010;52.084;5.412;2023-04-29T08:04:34;9.35;;;3.50;;
65924;SDS011;66010;52.084;5.412;2023-04-29T08:07:08;8.32;;;3.00;;
65924;SDS011;66010;52.084;5.412;2023-04-29T08:09:34;5.50;;;2.50;;
65924;SDS011;66010;52.084;5.412;2023-04-29T08:12:02;5.47;;;2.65;;
65924;SDS011;66010;52.084;5.412;2023-04-29T08:14:29;9.48;;;3.75;;
65924;SDS011;66010;52.084;5.412;2023-04-29T08:16:57;8.10;;;3.40;;
65924;SDS011;66010;52.084;5.412;2023-04-29T08:19:23;7.93;;;2.92;;
65924;SDS011;66010;52.084;5.412;2023-04-29T08:21:50;7.10;;;2.38;;
65924;SDS011;66010;52.084;5.412;2023-04-29T08:24:17;10.50;;;4.30;;
65924;SDS011;66010;52.084;5.412;2023-04-29T08:26:43;10.27;;;4.38;;
65924;SDS011;66010;52.084;5.412;2023-04-29T08:29:10;7.75;;;2.80;;
65924;SDS011;66010;52.084;5.412;2023-04-29T08:31:36;8.07;;;3.20;;
65924;SDS011;66010;52.084;5.412;2023-04-29T08:34:03;5.60;;;2.10;;
65924;SDS011;66010;52.084;5.412;2023-04-29T08:36:30;8.07;;;3.20;;
65924;SDS011;66010;52.084;5.412;2023-04-29T08:38:56;9.77;;;3.78;;
65924;SDS011;66010;52.084;5.412;2023-04-29T08:41:22;6.93;;;2.75;;
65924;SDS011;66010;52.084;5.412;2023-04-29T08:43:50;6.78;;;2.47;;
65924;SDS011;66010;52.084;5.412;2023-04-29T08:46:16;7.15;;;3.00;;
65924;SDS011;66010;52.084;5.412;2023-04-29T08:48:44;9.45;;;4.28;;
65924;SDS011;66010;52.084;5.412;2023-04-29T08:51:11;6.00;;;2.00;;
65924;SDS011;66010;52.084;5.412;2023-04-29T08:53:38;8.35;;;3.50;;
65924;SDS011;66010;52.084;5.412;2023-04-29T08:56:10;6.55;;;2.15;;
65924;SDS011;66010;52.084;5.412;2023-04-29T09:01:06;6.55;;;2.83;;
65924;SDS011;66010;52.084;5.412;2023-04-29T09:03:35;6.05;;;2.10;;
65924;SDS011;66010;52.084;5.412;2023-04-29T09:06:02;5.32;;;1.90;;
65924;SDS011;66010;52.084;5.412;2023-04-29T09:08:31;6.07;;;2.10;;
65924;SDS011;66010;52.084;5.412;2023-04-29T09:13:30;7.25;;;2.92;;
65924;SDS011;66010;52.084;5.412;2023-04-29T09:15:57;6.40;;;2.20;;
65924;SDS011;66010;52.084;5.412;2023-04-29T09:21:19;8.43;;;2.58;;
65924;SDS011;66010;52.084;5.412;2023-04-29T09:23:49;4.97;;;2.17;;
65924;SDS011;66010;52.084;5.412;2023-04-29T09:26:15;8.18;;;3.13;;
65924;SDS011;66010;52.084;5.412;2023-04-29T09:28:42;6.93;;;2.83;;
65924;SDS011;66010;52.084;5.412;2023-04-29T09:31:10;5.38;;;1.90;;
65924;SDS011;66010;52.084;5.412;2023-04-29T09:36:04;4.00;;;1.67;;
65924;SDS011;66010;52.084;5.412;2023-04-29T09:38:30;4.82;;;2.13;;
65924;SDS011;66010;52.084;5.412;2023-04-29T09:40:57;12.07;;;4.40;;
65924;SDS011;66010;52.084;5.412;2023-04-29T09:43:27;10.20;;;3.92;;
65924;SDS011;66010;52.084;5.412;2023-04-29T09:45:54;8.55;;;3.08;;
65924;SDS011;66010;52.084;5.412;2023-04-29T09:48:20;6.10;;;1.90;;
65924;SDS011;66010;52.084;5.412;2023-04-29T09:50:57;5.43;;;1.85;;
65924;SDS011;66010;52.084;5.412;2023-04-29T09:53:28;6.60;;;1.65;;
65924;SDS011;66010;52.084;5.412;2023-04-29T09:56:01;5.18;;;1.50;;
65924;SDS011;66010;52.084;5.412;2023-04-29T09:58:28;5.18;;;1.60;;
65924;SDS011;66010;52.084;5.412;2023-04-29T10:00:57;3.03;;;1.30;;
65924;SDS011;66010;52.084;5.412;2023-04-29T10:03:37;6.30;;;1.60;;
65924;SDS011;66010;52.084;5.412;2023-04-29T10:06:05;2.95;;;1.33;;
65924;SDS011;66010;52.084;5.412;2023-04-29T10:08:32;3.72;;;1.30;;
65924;SDS011;66010;52.084;5.412;2023-04-29T10:11:02;2.20;;;1.30;;
65924;SDS011;66010;52.084;5.412;2023-04-29T10:13:29;3.35;;;1.27;;
65924;SDS011;66010;52.084;5.412;2023-04-29T10:18:25;2.55;;;1.10;;
65924;SDS011;66010;52.084;5.412;2023-04-29T10:20:53;4.93;;;1.20;;
65924;SDS011;66010;52.084;5.412;2023-04-29T10:23:22;5.03;;;1.40;;
65924;SDS011;66010;52.084;5.412;2023-04-29T10:25:51;4.53;;;1.40;;
65924;SDS011;66010;52.084;5.412;2023-04-29T10:28:18;2.75;;;1.27;;
65924;SDS011;66010;52.084;5.412;2023-04-29T10:30:49;5.70;;;1.40;;
65924;SDS011;66010;52.084;5.412;2023-04-29T10:33:15;3.10;;;1.25;;
65924;SDS011;66010;52.084;5.412;2023-04-29T10:35:43;2.80;;;1.17;;
65924;SDS011;66010;52.084;5.412;2023-04-29T10:38:12;3.33;;;1.10;;
65924;SDS011;66010;52.084;5.412;2023-04-29T10:40:53;3.97;;;1.42;;
65924;SDS011;66010;52.084;5.412;2023-04-29T10:43:22;3.65;;;1.15;;
65924;SDS011;66010;52.084;5.412;2023-04-29T10:45:49;3.72;;;1.40;;
65924;SDS011;66010;52.084;5.412;2023-04-29T10:48:16;2.88;;;1.20;;
65924;SDS011;66010;52.084;5.412;2023-04-29T10:53:14;3.25;;;1.30;;
65924;SDS011;66010;52.084;5.412;2023-04-29T10:55:41;2.67;;;1.08;;
65924;SDS011;66010;52.084;5.412;2023-04-29T11:00:53;3.97;;;1.10;;
65924;SDS011;66010;52.084;5.412;2023-04-29T11:06:09;1.95;;;1.00;;
65924;SDS011;66010;52.084;5.412;2023-04-29T11:08:36;2.90;;;1.10;;
65924;SDS011;66010;52.084;5.412;2023-04-29T11:11:05;2.13;;;1.20;;
65924;SDS011;66010;52.084;5.412;2023-04-29T11:13:38;2.58;;;1.13;;
65924;SDS011;66010;52.084;5.412;2023-04-29T11:18:32;3.22;;;1.20;;
65924;SDS011;66010;52.084;5.412;2023-04-29T11:23:29;2.45;;;1.05;;
65924;SDS011;66010;52.084;5.412;2023-04-29T11:25:56;3.25;;;1.20;;
65924;SDS011;66010;52.084;5.412;2023-04-29T11:28:23;2.92;;;1.10;;
65924;SDS011;66010;52.084;5.412;2023-04-29T11:30:49;2.67;;;1.20;;
65924;SDS011;66010;52.084;5.412;2023-04-29T11:33:16;3.30;;;1.30;;
65924;SDS011;66010;52.084;5.412;2023-04-29T11:35:45;3.60;;;1.20;;
65924;SDS011;66010;52.084;5.412;2023-04-29T11:38:12;2.85;;;1.25;;
65924;SDS011;66010;52.084;5.412;2023-04-29T11:40:48;2.35;;;1.00;;
65924;SDS011;66010;52.084;5.412;2023-04-29T11:43:16;2.67;;;1.23;;
65924;SDS011;66010;52.084;5.412;2023-04-29T11:45:46;2.80;;;1.20;;
65924;SDS011;66010;52.084;5.412;2023-04-29T11:48:22;5.25;;;1.50;;
65924;SDS011;66010;52.084;5.412;2023-04-29T11:50:52;2.10;;;1.10;;
65924;SDS011;66010;52.084;5.412;2023-04-29T11:53:20;2.33;;;1.20;;
65924;SDS011;66010;52.084;5.412;2023-04-29T11:55:47;2.95;;;1.30;;
65924;SDS011;66010;52.084;5.412;2023-04-29T11:58:14;2.10;;;1.08;;
65924;SDS011;66010;52.084;5.412;2023-04-29T12:00:41;3.15;;;1.30;;
65924;SDS011;66010;52.084;5.412;2023-04-29T12:03:14;4.57;;;1.38;;
65924;SDS011;66010;52.084;5.412;2023-04-29T12:05:51;4.18;;;1.40;;
65924;SDS011;66010;52.084;5.412;2023-04-29T12:08:27;2.70;;;1.30;;
65924;SDS011;66010;52.084;5.412;2023-04-29T12:10:55;7.93;;;1.80;;
65924;SDS011;66010;52.084;5.412;2023-04-29T12:13:23;11.73;;;1.60;;
65924;SDS011;66010;52.084;5.412;2023-04-29T12:15:50;6.00;;;1.40;;
65924;SDS011;66010;52.084;5.412;2023-04-29T12:18:18;4.80;;;1.30;;
65924;SDS011;66010;52.084;5.412;2023-04-29T12:20:45;3.97;;;1.30;;
65924;SDS011;66010;52.084;5.412;2023-04-29T12:23:14;5.00;;;1.40;;
65924;SDS011;66010;52.084;5.412;2023-04-29T12:25:40;5.13;;;1.38;;
65924;SDS011;66010;52.084;5.412;2023-04-29T12:28:11;3.78;;;1.13;;
65924;SDS011;66010;52.084;5.412;2023-04-29T12:30:38;3.15;;;1.23;;
65924;SDS011;66010;52.084;5.412;2023-04-29T12:33:07;3.40;;;1.20;;
65924;SDS011;66010;52.084;5.412;2023-04-29T12:35:34;2.70;;;1.20;;
65924;SDS011;66010;52.084;5.412;2023-04-29T12:38:01;4.25;;;1.25;;
65924;SDS011;66010;52.084;5.412;2023-04-29T12:40:28;3.30;;;1.27;;
65924;SDS011;66010;52.084;5.412;2023-04-29T12:42:55;5.05;;;1.40;;
65924;SDS011;66010;52.084;5.412;2023-04-29T12:45:31;3.95;;;1.38;;
65924;SDS011;66010;52.084;5.412;2023-04-29T12:47:58;4.70;;;1.20;;
65924;SDS011;66010;52.084;5.412;2023-04-29T12:52:51;3.80;;;1.20;;
65924;SDS011;66010;52.084;5.412;2023-04-29T12:55:18;3.10;;;1.23;;
65924;SDS011;66010;52.084;5.412;2023-04-29T12:57:45;2.53;;;1.20;;
65924;SDS011;66010;52.084;5.412;2023-04-29T13:00:12;3.53;;;1.20;;
65924;SDS011;66010;52.084;5.412;2023-04-29T13:02:39;3.60;;;1.30;;
65924;SDS011;66010;52.084;5.412;2023-04-29T13:05:07;3.50;;;1.30;;
65924;SDS011;66010;52.084;5.412;2023-04-29T13:07:33;2.67;;;1.30;;
65924;SDS011;66010;52.084;5.412;2023-04-29T13:10:02;2.20;;;1.17;;
65924;SDS011;66010;52.084;5.412;2023-04-29T13:12:31;2.33;;;1.10;;
65924;SDS011;66010;52.084;5.412;2023-04-29T13:14:58;3.65;;;1.30;;
65924;SDS011;66010;52.084;5.412;2023-04-29T13:17:25;3.53;;;1.33;;
65924;SDS011;66010;52.084;5.412;2023-04-29T13:19:51;2.42;;;1.33;;
65924;SDS011;66010;52.084;5.412;2023-04-29T13:22:18;3.85;;;1.20;;
65924;SDS011;66010;52.084;5.412;2023-04-29T13:24:45;3.38;;;1.30;;
65924;SDS011;66010;52.084;5.412;2023-04-29T13:27:12;3.78;;;1.08;;
65924;SDS011;66010;52.084;5.412;2023-04-29T13:29:39;2.00;;;1.00;;
65924;SDS011;66010;52.084;5.412;2023-04-29T13:32:05;2.22;;;1.10;;
65924;SDS011;66010;52.084;5.412;2023-04-29T13:34:35;2.45;;;1.27;;
65924;SDS011;66010;52.084;5.412;2023-04-29T13:37:01;3.25;;;1.17;;
65924;SDS011;66010;52.084;5.412;2023-04-29T13:39:28;3.35;;;1.20;;
65924;SDS011;66010;52.084;5.412;2023-04-29T13:41:55;3.95;;;1.30;;
65924;SDS011;66010;52.084;5.412;2023-04-29T13:44:24;2.83;;;1.20;;
65924;SDS011;66010;52.084;5.412;2023-04-29T13:47:11;2.35;;;1.17;;
65924;SDS011;66010;52.084;5.412;2023-04-29T13:49:38;1.92;;;1.10;;
65924;SDS011;66010;52.084;5.412;2023-04-29T13:52:08;2.60;;;1.10;;
65924;SDS011;66010;52.084;5.412;2023-04-29T13:54:37;1.67;;;1.10;;
65924;SDS011;66010;52.084;5.412;2023-04-29T13:57:24;1.08;;;0.90;;
65924;SDS011;66010;52.084;5.412;2023-04-29T14:00:12;2.20;;;1.20;;
65924;SDS011;66010;52.084;5.412;2023-04-29T14:03:01;2.78;;;1.23;;
65924;SDS011;66010;52.084;5.412;2023-04-29T14:05:28;1.77;;;1.15;;
65924;SDS011;66010;52.084;5.412;2023-04-29T14:07:55;1.70;;;1.08;;
65924;SDS011;66010;52.084;5.412;2023-04-29T14:10:21;1.73;;;1.05;;
65924;SDS011;66010;52.084;5.412;2023-04-29T14:12:49;2.35;;;1.20;;
65924;SDS011;66010;52.084;5.412;2023-04-29T14:15:15;2.60;;;1.30;;
65924;SDS011;66010;52.084;5.412;2023-04-29T14:17:42;2.70;;;1.17;;
65924;SDS011;66010;52.084;5.412;2023-04-29T14:20:09;2.15;;;1.20;;
65924;SDS011;66010;52.084;5.412;2023-04-29T14:22:35;3.08;;;1.30;;
65924;SDS011;66010;52.084;5.412;2023-04-29T14:25:02;2.65;;;1.20;;
65924;SDS011;66010;52.084;5.412;2023-04-29T14:27:28;2.58;;;1.10;;
65924;SDS011;66010;52.084;5.412;2023-04-29T14:29:55;2.28;;;1.20;;
65924;SDS011;66010;52.084;5.412;2023-04-29T14:32:21;2.15;;;1.10;;
65924;SDS011;66010;52.084;5.412;2023-04-29T14:34:48;1.92;;;1.10;;
65924;SDS011;66010;52.084;5.412;2023-04-29T14:37:14;3.08;;;1.30;;
65924;SDS011;66010;52.084;5.412;2023-04-29T14:39:41;3.40;;;1.20;;
65924;SDS011;66010;52.084;5.412;2023-04-29T14:42:07;3.95;;;1.42;;
65924;SDS011;66010;52.084;5.412;2023-04-29T14:44:34;2.55;;;1.20;;
65924;SDS011;66010;52.084;5.412;2023-04-29T14:47:01;3.33;;;1.20;;
65924;SDS011;66010;52.084;5.412;2023-04-29T14:49:27;4.78;;;1.30;;
65924;SDS011;66010;52.084;5.412;2023-04-29T14:51:56;4.35;;;1.45;;
65924;SDS011;66010;52.084;5.412;2023-04-29T14:54:23;3.25;;;1.33;;
65924;SDS011;66010;52.084;5.412;2023-04-29T14:56:49;3.97;;;1.40;;
65924;SDS011;66010;52.084;5.412;2023-04-29T14:59:16;3.28;;;1.20;;
65924;SDS011;66010;52.084;5.412;2023-04-29T15:01:42;3.25;;;1.30;;
65924;SDS011;66010;52.084;5.412;2023-04-29T15:04:09;3.08;;;1.30;;
65924;SDS011;66010;52.084;5.412;2023-04-29T15:06:38;2.85;;;1.20;;
65924;SDS011;66010;52.084;5.412;2023-04-29T15:09:06;2.80;;;1.30;;
65924;SDS011;66010;52.084;5.412;2023-04-29T15:13:59;2.75;;;1.17;;
65924;SDS011;66010;52.084;5.412;2023-04-29T15:16:26;3.95;;;1.23;;
65924;SDS011;66010;52.084;5.412;2023-04-29T15:18:54;2.88;;;1.27;;
65924;SDS011;66010;52.084;5.412;2023-04-29T15:21:20;4.65;;;1.20;;
65924;SDS011;66010;52.084;5.412;2023-04-29T15:23:47;2.95;;;1.40;;
65924;SDS011;66010;52.084;5.412;2023-04-29T15:26:14;4.38;;;1.30;;
65924;SDS011;66010;52.084;5.412;2023-04-29T15:28:40;1.92;;;1.10;;
65924;SDS011;66010;52.084;5.412;2023-04-29T15:31:08;2.35;;;1.30;;
65924;SDS011;66010;52.084;5.412;2023-04-29T15:33:35;2.47;;;1.20;;
65924;SDS011;66010;52.084;5.412;2023-04-29T15:36:01;3.35;;;1.20;;
65924;SDS011;66010;52.084;5.412;2023-04-29T15:38:28;3.95;;;1.30;;